Davidson, Canada
Current Conditions -  °F | °C
As of 12:00 PM on Monday 24 Nov 2014 (Local Time) from CYXE Reporting Station
Snow Showers Snow Showers  
Wind Chill:   Ceiling: 6000
Heat Index: 21°   Visibility: 15mi
Dew Point: 19°   Wind: 14mph
Humidity: 93%   Direction: 320°NW
Pressure: 29.91"   Gusts: NA
Location:  51.27°N, 105.97°W
Report Text: CYXE 241800Z 32012KT 15SM -SHSN SCT020 OVC060 M06/M07 A2991 RMK SC4SC4 SLP170
Loading
Personal Weather Stations






























Interactive Weather Map New forecast layout! Learn more

10-Day Weather Forecast

Advertisements
Track Severe Weather on mobile